Time;durP1;ratioP1;P1;durP2;ratioP2;P2;SDS_P1;SDS_P2;PMS_P1;PMS_P2;Temp;Humidity;BMP_temperature;BMP_pressure;BME280_temperature;BME280_humidity;BME280_pressure;Samples;Min_cycle;Max_cycle;Signal;HPM_P1;HPM_P2
2021/12/30 00:00:13;;;;;;;;;;;;;;;25.97;56.81;96482.06;622465;228;64970;-67
2021/12/30 00:02:40;;;;;;;;;;;;;;;25.96;56.48;96472.42;622468;228;64991;-67
2021/12/30 00:05:08;;;;;;;;;;;;;;;25.97;56.50;96484.76;622428;228;67056;-67
2021/12/30 00:07:36;;;;;;;;;;;;;;;25.96;56.46;96488.57;622477;228;64933;-67
2021/12/30 00:10:05;;;;;;;;;;;;;;;25.96;56.60;96489.36;622453;228;65039;-67
2021/12/30 00:12:32;;;;;;;;;;;;;;;25.97;56.52;96490.14;622429;228;67232;-67
2021/12/30 00:15:00;;;;;;;;;;;;;;;25.97;56.71;96495.53;622465;228;67056;-67
2021/12/30 00:17:27;;;;;;;;;;;;;;;25.95;56.70;96497.77;622448;228;65142;-67
2021/12/30 00:19:55;;;;;;;;;;;;;;;25.95;56.75;96497.77;622451;228;67191;-67
2021/12/30 00:22:23;;;;;;;;;;;;;;;25.93;56.50;96489.20;622513;228;66932;-67
2021/12/30 00:24:51;;;;;;;;;;;;;;;25.92;56.93;96488.42;622468;228;62978;-67
2021/12/30 00:27:18;;;;;;;;;;;;;;;25.93;56.71;96494.59;622443;228;65717;-67
2021/12/30 00:29:46;;;;;;;;;;;;;;;25.91;56.78;96495.67;622414;228;65339;-64
2021/12/30 00:32:13;;;;;;;;;;;;;;;25.91;56.77;96498.38;622456;228;63015;-64
2021/12/30 00:34:41;;;;;;;;;;;;;;;25.91;56.57;96494.89;622480;228;64821;-64
2021/12/30 00:37:08;;;;;;;;;;;;;;;25.91;56.71;96497.58;622427;228;64934;-64
2021/12/30 00:39:36;;;;;;;;;;;;;;;25.91;56.58;96497.58;622450;228;62942;-64
2021/12/30 00:42:03;;;;;;;;;;;;;;;25.89;56.77;96500.61;622491;228;65039;-64
2021/12/30 00:44:31;;;;;;;;;;;;;;;25.89;56.72;96511.38;622434;228;64919;-64
2021/12/30 00:46:59;;;;;;;;;;;;;;;25.87;56.56;96494.73;622505;228;64893;-64
2021/12/30 00:49:28;;;;;;;;;;;;;;;25.87;56.89;96502.81;622452;228;66924;-64
2021/12/30 00:51:56;;;;;;;;;;;;;;;25.87;56.89;96508.20;622354;227;67141;-64
2021/12/30 00:54:23;;;;;;;;;;;;;;;25.87;56.74;96504.72;622409;228;65109;-64
2021/12/30 00:56:51;;;;;;;;;;;;;;;25.86;56.92;96506.62;622452;228;67368;-64
2021/12/30 00:59:18;;;;;;;;;;;;;;;25.85;56.82;96510.41;622490;228;66877;-64
2021/12/30 01:01:46;;;;;;;;;;;;;;;25.85;56.91;96509.62;622406;228;65036;-64
2021/12/30 01:04:14;;;;;;;;;;;;;;;25.84;56.92;96508.05;622427;228;67043;-64
2021/12/30 01:06:41;;;;;;;;;;;;;;;25.83;56.91;96504.53;622475;228;67040;-64
2021/12/30 01:09:09;;;;;;;;;;;;;;;25.82;56.95;96504.84;622454;228;65040;-64
2021/12/30 01:11:36;;;;;;;;;;;;;;;25.82;56.98;96504.84;622478;228;66985;-64
2021/12/30 01:14:14;;;;;;;;;;;;;;;25.82;56.81;96504.84;622505;228;66595;-64
2021/12/30 01:16:41;;;;;;;;;;;;;;;25.81;56.68;96511.31;622022;228;65189;-64
2021/12/30 01:21:34;;;;;;;;;;;;;;;25.79;56.60;96506.25;622485;228;66649;-63
2021/12/30 01:24:02;;;;;;;;;;;;;;;25.79;56.95;96508.95;622487;228;63325;-63
2021/12/30 01:26:30;;;;;;;;;;;;;;;25.78;56.92;96501.98;622520;228;66891;-63
2021/12/30 01:28:57;;;;;;;;;;;;;;;25.78;56.92;96506.55;622512;228;66431;-63
2021/12/30 01:31:25;;;;;;;;;;;;;;;25.78;56.71;96506.55;622501;228;64908;-64
2021/12/30 01:33:52;;;;;;;;;;;;;;;25.76;57.04;96506.89;622487;228;66985;-63
2021/12/30 01:36:21;;;;;;;;;;;;;;;25.77;57.13;96508.46;622496;228;66589;-63
2021/12/30 01:38:49;;;;;;;;;;;;;;;25.76;56.85;96512.27;622525;228;65105;-63
2021/12/30 01:41:16;;;;;;;;;;;;;;;25.75;56.91;96516.05;622424;228;67238;-63
2021/12/30 01:43:44;;;;;;;;;;;;;;;25.75;57.15;96513.36;622461;228;67341;-63
2021/12/30 01:46:11;;;;;;;;;;;;;;;25.74;57.07;96509.09;622219;228;64925;-63
2021/12/30 01:48:39;;;;;;;;;;;;;;;25.73;56.84;96510.21;622474;228;64925;-63
2021/12/30 01:51:07;;;;;;;;;;;;;;;25.73;56.86;96515.59;624223;226;64918;-64
2021/12/30 01:53:35;;;;;;;;;;;;;;;25.72;57.77;96513.98;625532;227;62978;-63
2021/12/30 01:56:03;;;;;;;;;;;;;;;25.72;56.93;96515.89;625545;227;65660;-63
2021/12/30 01:58:31;;;;;;;;;;;;;;;25.71;56.98;96514.32;625576;227;64836;-64
2021/12/30 02:00:58;;;;;;;;;;;;;;;25.71;57.02;96517.80;625561;227;65062;-63
2021/12/30 02:03:26;;;;;;;;;;;;;;;25.71;57.31;96519.70;625575;227;67073;-63
2021/12/30 02:05:54;;;;;;;;;;;;;;;25.69;57.74;96522.69;625618;227;66829;-63
2021/12/30 02:08:21;;;;;;;;;;;;;;;25.68;56.90;96523.81;625522;227;65090;-63
2021/12/30 02:10:50;;;;;;;;;;;;;;;25.67;57.16;96520.33;625572;227;67467;-63
2021/12/30 02:13:18;;;;;;;;;;;;;;;25.66;57.06;96518.73;625537;227;64871;-63
2021/12/30 02:15:46;;;;;;;;;;;;;;;25.66;57.12;96524.11;625558;227;65034;-63
2021/12/30 02:18:13;;;;;;;;;;;;;;;25.66;56.95;96534.09;625599;227;67039;-63
2021/12/30 02:20:48;;;;;;;;;;;;;;;25.65;56.95;96535.20;625500;227;66902;-64
2021/12/30 02:23:17;;;;;;;;;;;;;;;25.65;57.47;96540.59;625556;227;62764;-63
2021/12/30 02:25:45;;;;;;;;;;;;;;;25.64;57.07;96538.98;625590;227;64953;-63
2021/12/30 02:28:14;;;;;;;;;;;;;;;25.63;57.41;96540.88;625554;227;66890;-63
2021/12/30 02:30:43;;;;;;;;;;;;;;;25.62;57.27;96551.98;625611;227;65142;-63
2021/12/30 02:33:11;;;;;;;;;;;;;;;25.62;57.21;96551.98;625549;227;65665;-63
2021/12/30 02:35:38;;;;;;;;;;;;;;;25.61;57.02;96547.68;625522;227;64959;-63
2021/12/30 02:38:06;;;;;;;;;;;;;;;25.61;57.51;96558.45;625555;227;62843;-63
2021/12/30 02:40:36;;;;;;;;;;;;;;;25.60;57.83;96563.04;625556;227;67185;-63
2021/12/30 02:43:05;;;;;;;;;;;;;;;25.60;58.26;96562.25;625568;227;65631;-63
2021/12/30 02:45:33;;;;;;;;;;;;;;;25.58;57.17;96561.77;625590;227;65211;-64
2021/12/30 02:48:00;;;;;;;;;;;;;;;25.58;57.97;96556.38;625528;227;67166;-63
2021/12/30 02:50:29;;;;;;;;;;;;;;;25.57;57.73;96562.87;624628;226;66631;-64
2021/12/30 02:52:57;;;;;;;;;;;;;;;25.56;57.58;96562.06;622455;228;63825;-64
2021/12/30 02:55:24;;;;;;;;;;;;;;;25.57;57.71;96568.26;622455;228;67260;-63
2021/12/30 02:57:51;;;;;;;;;;;;;;;25.55;60.43;96571.25;622485;228;67235;-66
2021/12/30 03:00:19;;;;;;;;;;;;;;;25.54;58.87;96575.05;622473;228;64848;-66
2021/12/30 03:02:46;;;;;;;;;;;;;;;25.53;58.14;96580.73;622442;228;65004;-66
2021/12/30 03:05:15;;;;;;;;;;;;;;;25.51;59.56;96591.82;622469;228;66925;-66
2021/12/30 03:07:43;;;;;;;;;;;;;;;25.52;58.50;96592.61;622468;228;62752;-67
2021/12/30 03:10:15;;;;;;;;;;;;;;;25.51;59.28;96591.00;622502;228;65119;-67
2021/12/30 03:12:42;;;;;;;;;;;;;;;25.50;58.99;96590.22;622543;228;64972;-66
2021/12/30 03:15:12;;;;;;;;;;;;;;;25.49;57.84;96594.02;622462;228;64871;-66
2021/12/30 03:17:39;;;;;;;;;;;;;;;25.49;57.82;96596.71;622231;228;66937;-66
2021/12/30 03:20:09;;;;;;;;;;;;;;;25.47;58.26;96602.39;622472;228;67051;-66
2021/12/30 03:22:40;;;;;;;;;;;;;;;25.48;57.67;96608.55;622429;228;63128;-67
2021/12/30 03:25:08;;;;;;;;;;;;;;;25.47;57.95;96610.45;622491;228;67457;-67
2021/12/30 03:27:36;;;;;;;;;;;;;;;25.47;58.27;96609.67;622439;228;65786;-64
2021/12/30 03:30:05;;;;;;;;;;;;;;;25.45;58.21;96615.38;622471;228;62727;-64
2021/12/30 03:32:32;;;;;;;;;;;;;;;25.45;59.20;96615.38;622471;228;67206;-64
2021/12/30 03:35:00;;;;;;;;;;;;;;;25.44;61.52;96615.67;622473;228;66977;-64
2021/12/30 03:37:27;;;;;;;;;;;;;;;25.40;60.47;96618.20;622484;228;64719;-64
2021/12/30 03:39:55;;;;;;;;;;;;;;;25.41;59.52;96622.47;622470;228;67202;-64
2021/12/30 03:42:22;;;;;;;;;;;;;;;25.40;61.08;96631.65;622446;228;66986;-64
2021/12/30 03:44:52;;;;;;;;;;;;;;;25.41;61.16;96629.75;622462;228;63870;-64
2021/12/30 03:47:19;;;;;;;;;;;;;;;25.39;58.11;96635.42;622408;228;67216;-64
2021/12/30 03:49:47;;;;;;;;;;;;;;;25.39;59.34;96643.49;622468;227;64718;-64
2021/12/30 03:52:20;;;;;;;;;;;;;;;25.38;59.26;96647.30;622439;228;65142;-64
2021/12/30 03:54:45;;;;;;;;;;;;;;;25.38;60.78;96646.50;622305;228;67171;-68
2021/12/30 03:57:12;;;;;;;;;;;;;;;25.37;61.48;96648.41;622463;228;67015;-68
2021/12/30 03:59:40;;;;;;;;;;;;;;;25.35;59.99;96658.67;622440;228;64916;-68
2021/12/30 04:02:07;;;;;;;;;;;;;;;25.35;59.66;96664.05;622460;228;67004;-68
2021/12/30 04:04:35;;;;;;;;;;;;;;;25.34;61.54;96667.83;622540;228;66815;-68
2021/12/30 04:07:03;;;;;;;;;;;;;;;25.33;60.12;96670.84;622416;228;65124;-68
2021/12/30 04:09:31;;;;;;;;;;;;;;;25.32;58.41;96678.13;622458;228;66988;-68
2021/12/30 04:12:01;;;;;;;;;;;;;;;25.32;60.17;96680.81;622346;228;67266;-68
2021/12/30 04:14:28;;;;;;;;;;;;;;;25.32;59.55;96685.37;621879;228;64842;-68
2021/12/30 04:16:56;;;;;;;;;;;;;;;25.31;61.23;96694.55;622500;228;66953;-68
2021/12/30 04:19:23;;;;;;;;;;;;;;;25.30;61.42;96692.97;622462;228;64954;-68
2021/12/30 04:21:56;;;;;;;;;;;;;;;25.29;62.16;96702.95;622442;228;62988;-68
2021/12/30 04:24:23;;;;;;;;;;;;;;;25.28;62.44;96703.23;622459;228;66861;-64
2021/12/30 04:26:51;;;;;;;;;;;;;;;25.25;61.01;96713.50;622456;228;64935;-64
2021/12/30 04:29:21;;;;;;;;;;;;;;;25.24;61.61;96711.92;622561;228;46196;-64
2021/12/30 04:31:49;;;;;;;;;;;;;;;25.23;61.99;96709.52;622505;228;66869;-64
2021/12/30 04:34:16;;;;;;;;;;;;;;;25.24;63.65;96717.30;622411;228;66817;-64
2021/12/30 04:36:44;;;;;;;;;;;;;;;25.22;59.37;96727.56;622435;228;65108;-64
2021/12/30 04:39:11;;;;;;;;;;;;;;;25.23;62.02;96728.34;622454;228;67398;-64
2021/12/30 04:41:39;;;;;;;;;;;;;;;25.19;62.30;96736.24;622427;228;65634;-64
2021/12/30 04:44:06;;;;;;;;;;;;;;;25.21;61.84;96727.88;622501;228;65028;-64
2021/12/30 04:46:36;;;;;;;;;;;;;;;25.20;61.26;96737.81;622434;228;67094;-64
2021/12/30 04:49:03;;;;;;;;;;;;;;;25.19;61.68;96738.14;622432;228;66815;-64
2021/12/30 04:51:31;;;;;;;;;;;;;;;25.20;62.33;96742.41;622417;226;65062;-64
2021/12/30 04:53:58;;;;;;;;;;;;;;;25.20;61.78;96745.09;622468;228;67215;-64
2021/12/30 04:56:26;;;;;;;;;;;;;;;25.19;63.05;96754.27;622406;228;66902;-67
2021/12/30 04:58:53;;;;;;;;;;;;;;;25.17;62.38;96756.47;622480;228;65125;-67
2021/12/30 05:01:21;;;;;;;;;;;;;;;25.17;63.07;96759.95;622438;228;67270;-68
2021/12/30 05:03:49;;;;;;;;;;;;;;;25.16;62.17;96762.95;622472;228;64765;-68
2021/12/30 05:06:16;;;;;;;;;;;;;;;25.15;61.11;96764.83;622533;228;62919;-68
2021/12/30 05:08:44;;;;;;;;;;;;;;;25.15;61.83;96767.52;622495;228;65628;-68
2021/12/30 05:11:11;;;;;;;;;;;;;;;25.15;63.27;96777.48;622471;228;65833;-68
2021/12/30 05:13:39;;;;;;;;;;;;;;;25.14;61.77;96773.19;622470;228;64999;-68
2021/12/30 05:16:06;;;;;;;;;;;;;;;25.12;63.28;96778.06;622501;228;67115;-68
2021/12/30 05:18:36;;;;;;;;;;;;;;;25.12;62.92;96778.06;622580;228;66282;-67
2021/12/30 05:21:04;;;;;;;;;;;;;;;25.09;61.33;96774.08;622486;228;64922;-68
2021/12/30 05:23:32;;;;;;;;;;;;;;;25.11;61.85;96784.55;622493;228;66914;-68
2021/12/30 05:25:59;;;;;;;;;;;;;;;25.10;61.55;96788.31;622454;228;67005;-68
2021/12/30 05:28:27;;;;;;;;;;;;;;;25.10;61.73;96791.00;622474;228;64992;-68
2021/12/30 05:30:55;;;;;;;;;;;;;;;25.09;62.16;96797.49;622537;228;66844;-68
2021/12/30 05:33:23;;;;;;;;;;;;;;;25.09;63.42;96800.18;622483;228;64734;-67
2021/12/30 05:35:50;;;;;;;;;;;;;;;25.09;61.96;96802.87;622518;228;65079;-68
2021/12/30 05:38:18;;;;;;;;;;;;;;;25.07;59.48;96802.37;622488;228;66940;-67
2021/12/30 05:40:45;;;;;;;;;;;;;;;25.06;60.47;96800.79;622450;228;67181;-67
2021/12/30 05:43:13;;;;;;;;;;;;;;;25.06;61.55;96806.17;622531;228;64951;-67
2021/12/30 05:45:40;;;;;;;;;;;;;;;25.07;61.41;96799.68;622540;228;66921;-68
2021/12/30 05:48:08;;;;;;;;;;;;;;;25.08;61.34;96806.67;622461;228;66946;-67
2021/12/30 05:50:36;;;;;;;;;;;;;;;25.05;59.97;96810.75;622430;227;62757;-67
2021/12/30 05:53:04;;;;;;;;;;;;;;;25.06;60.17;96823.09;622452;228;65293;-67
2021/12/30 05:55:33;;;;;;;;;;;;;;;25.05;62.07;96836.85;622463;228;64942;-67
2021/12/30 05:58:01;;;;;;;;;;;;;;;25.07;61.32;96829.25;622463;228;62915;-67
2021/12/30 06:00:30;;;;;;;;;;;;;;;25.06;61.79;96839.22;622434;228;65140;-67
2021/12/30 06:02:58;;;;;;;;;;;;;;;25.06;61.21;96844.59;622482;228;64780;-67
2021/12/30 06:05:25;;;;;;;;;;;;;;;25.07;60.54;96853.45;622447;228;63056;-67
2021/12/30 06:07:53;;;;;;;;;;;;;;;25.06;61.11;96851.88;622438;228;64948;-67
2021/12/30 06:10:20;;;;;;;;;;;;;;;25.08;62.28;96858.55;622516;228;64933;-67
2021/12/30 06:12:48;;;;;;;;;;;;;;;25.07;62.72;96866.89;622466;228;62988;-67
2021/12/30 06:15:16;;;;;;;;;;;;;;;25.08;62.53;96863.13;622439;228;64996;-67
2021/12/30 06:17:43;;;;;;;;;;;;;;;25.09;63.88;96875.47;622293;228;64740;-67
2021/12/30 06:20:13;;;;;;;;;;;;;;;25.10;63.67;96872.49;622381;228;62938;-67
2021/12/30 06:22:42;;;;;;;;;;;;;;;25.09;64.32;96886.22;622443;228;67390;-66
2021/12/30 06:25:10;;;;;;;;;;;;;;;25.09;63.76;96891.59;622182;228;64614;-68
2021/12/30 06:27:38;;;;;;;;;;;;;;;25.10;64.33;96898.56;622440;228;65113;-68
2021/12/30 06:30:06;;;;;;;;;;;;;;;25.10;64.67;96907.45;621648;228;67258;-68
2021/12/30 06:32:34;;;;;;;;;;;;;;;25.10;64.29;96903.94;622772;225;66912;-65
2021/12/30 06:35:01;;;;;;;;;;;;;;;25.09;64.68;96908.52;622701;228;65022;-64
2021/12/30 06:37:30;;;;;;;;;;;;;;;25.12;63.06;96913.30;622774;228;67186;-65
2021/12/30 06:39:58;;;;;;;;;;;;;;;25.12;65.06;96917.88;622807;228;67429;-63
2021/12/30 06:42:25;;;;;;;;;;;;;;;25.11;63.14;96927.85;622350;228;64950;-63
2021/12/30 06:44:53;;;;;;;;;;;;;;;25.13;64.53;96938.32;622477;228;67113;-63
2021/12/30 06:47:20;;;;;;;;;;;;;;;25.12;64.49;96937.50;622744;228;67137;-63
2021/12/30 06:49:48;;;;;;;;;;;;;;;25.15;62.84;96941.52;622804;226;62882;-63
2021/12/30 06:52:15;;;;;;;;;;;;;;;25.15;64.67;96946.89;622091;228;65132;-63
2021/12/30 06:54:43;;;;;;;;;;;;;;;25.14;63.84;96947.97;622102;228;65622;-63
2021/12/30 06:57:12;;;;;;;;;;;;;;;25.15;64.32;96957.65;622091;228;62976;-63
2021/12/30 06:59:40;;;;;;;;;;;;;;;25.15;63.87;96952.27;621967;225;65381;-63
2021/12/30 07:02:07;;;;;;;;;;;;;;;25.15;64.65;96961.13;622050;228;65677;-63
2021/12/30 07:04:35;;;;;;;;;;;;;;;25.15;64.27;96966.50;622074;228;63026;-65
2021/12/30 07:07:03;;;;;;;;;;;;;;;25.12;59.28;96968.98;622077;228;67463;-62
2021/12/30 07:09:31;;;;;;;;;;;;;;;25.14;62.44;96975.65;622054;228;67061;-63
2021/12/30 07:11:58;;;;;;;;;;;;;;;25.19;61.10;96978.27;622101;228;63512;-60
2021/12/30 07:14:26;;;;;;;;;;;;;;;25.25;59.46;96987.04;622081;228;67179;-67
2021/12/30 07:16:53;;;;;;;;;;;;;;;25.30;59.89;96994.22;621976;228;64873;-66
2021/12/30 07:19:21;;;;;;;;;;;;;;;25.33;59.24;96993.61;622047;228;62732;-69
2021/12/30 07:21:50;;;;;;;;;;;;;;;25.36;58.85;97001.08;621402;228;67210;-68
2021/12/30 07:24:20;;;;;;;;;;;;;;;25.37;58.40;97006.17;619810;226;64934;-70
2021/12/30 07:26:48;;;;;;;;;;;;;;;25.40;58.53;97016.34;618769;229;62346;-69
2021/12/30 07:29:16;;;;;;;;;;;;;;;25.42;58.63;97013.33;618606;229;64883;-73
2021/12/30 07:31:43;;;;;;;;;;;;;;;25.41;58.34;97020.61;618423;229;64923;-69
2021/12/30 07:34:11;;;;;;;;;;;;;;;25.43;58.88;97025.70;618725;229;62738;-70
2021/12/30 07:36:39;;;;;;;;;;;;;;;25.45;57.43;97026.17;618508;229;67153;-70
2021/12/30 07:39:06;;;;;;;;;;;;;;;25.45;58.06;97029.69;618594;227;66910;-70
2021/12/30 07:41:34;;;;;;;;;;;;;;;25.47;57.11;97029.37;618734;229;66103;-70
2021/12/30 07:44:01;;;;;;;;;;;;;;;25.46;57.40;97030.48;618590;229;67215;-70
2021/12/30 07:46:29;;;;;;;;;;;;;;;25.46;58.19;97030.48;618734;229;66683;-70
2021/12/30 07:48:56;;;;;;;;;;;;;;;25.46;57.50;97033.96;618643;229;62929;-70
2021/12/30 07:51:24;;;;;;;;;;;;;;;25.47;57.59;97032.06;618567;227;64982;-69
2021/12/30 07:53:51;;;;;;;;;;;;;;;25.48;57.06;97033.64;618741;227;65124;-69
2021/12/30 07:56:19;;;;;;;;;;;;;;;25.47;56.99;97038.23;619502;226;62914;-69
2021/12/30 07:58:46;;;;;;;;;;;;;;;25.48;57.03;97036.34;621857;226;65055;-71
2021/12/30 08:01:14;;;;;;;;;;;;;;;25.47;57.04;97049.00;622042;226;64834;-71
2021/12/30 08:03:43;;;;;;;;;;;;;;;25.50;57.84;97052.98;622458;226;62809;-71
2021/12/30 08:06:11;;;;;;;;;;;;;;;25.49;56.54;97048.71;622048;226;64878;-70
2021/12/30 08:08:39;;;;;;;;;;;;;;;25.51;57.19;97059.98;622661;226;64835;-70
2021/12/30 08:11:06;;;;;;;;;;;;;;;25.51;56.87;97065.36;625833;226;65031;-67
2021/12/30 08:13:34;;;;;;;;;;;;;;;25.44;56.45;97070.33;625815;226;66730;-70
2021/12/30 08:16:01;;;;;;;;;;;;;;;25.52;55.85;97072.33;625845;226;67078;-73
2021/12/30 08:18:29;;;;;;;;;;;;;;;25.54;55.65;97072.83;625771;226;65052;-72
2021/12/30 08:20:58;;;;;;;;;;;;;;;25.56;55.57;97069.83;625906;226;67306;-68
2021/12/30 08:23:25;;;;;;;;;;;;;;;25.56;54.87;97078.69;625751;226;64694;-69
2021/12/30 08:25:53;;;;;;;;;;;;;;;25.59;55.20;97077.30;625720;226;62973;-69
2021/12/30 08:28:21;;;;;;;;;;;;;;;25.58;54.67;97089.96;625813;226;67096;-69
2021/12/30 08:30:49;;;;;;;;;;;;;;;25.59;55.02;97082.67;625886;226;66982;-69
2021/12/30 08:33:16;;;;;;;;;;;;;;;25.58;54.46;97089.96;625749;226;63801;-69
2021/12/30 08:35:44;;;;;;;;;;;;;;;25.59;54.98;97088.88;625836;226;64858;-69
2021/12/30 08:38:13;;;;;;;;;;;;;;;25.60;55.10;97084.30;625754;226;66791;-69
2021/12/30 08:40:41;;;;;;;;;;;;;;;25.60;55.53;97081.60;625572;226;64973;-69
2021/12/30 08:43:10;;;;;;;;;;;;;;;25.60;55.06;97095.06;611513;229;66061;-69
2021/12/30 08:45:38;;;;;;;;;;;;;;;25.61;54.48;97100.13;618483;228;63942;-69
2021/12/30 08:48:05;;;;;;;;;;;;;;;25.61;54.92;97096.64;618649;229;62631;-69
2021/12/30 08:50:34;;;;;;;;;;;;;;;25.62;54.59;97103.64;618513;229;67193;-68
2021/12/30 08:53:01;;;;;;;;;;;;;;;25.64;55.09;97106.80;618458;229;66986;-69
2021/12/30 08:55:29;;;;;;;;;;;;;;;25.64;54.87;97117.57;617836;229;65062;-69
2021/12/30 08:57:56;;;;;;;;;;;;;;;25.64;55.09;97123.74;618780;229;67166;-69
2021/12/30 09:00:25;;;;;;;;;;;;;;;25.66;55.02;97120.77;618709;229;67628;-68
2021/12/30 09:02:54;;;;;;;;;;;;;;;25.66;55.68;97126.94;619523;226;62891;-70
2021/12/30 09:05:22;;;;;;;;;;;;;;;25.66;55.73;97131.53;622029;226;67029;-70
2021/12/30 09:07:52;;;;;;;;;;;;;;;25.68;56.30;97134.73;622863;226;47425;-70
2021/12/30 09:10:20;;;;;;;;;;;;;;;25.69;56.68;97125.55;625748;226;65031;-69
2021/12/30 09:12:48;;;;;;;;;;;;;;;25.70;56.74;97137.93;625926;226;64950;-72
2021/12/30 09:15:16;;;;;;;;;;;;;;;25.71;58.03;97141.41;625865;226;67109;-66
2021/12/30 09:17:46;;;;;;;;;;;;;;;25.65;60.03;97144.20;625842;226;64873;-69
2021/12/30 09:20:14;;;;;;;;;;;;;;;25.65;57.40;97141.51;625877;226;67123;-69
2021/12/30 09:22:42;;;;;;;;;;;;;;;25.67;56.67;97141.19;625808;226;64711;-69
2021/12/30 09:25:10;;;;;;;;;;;;;;;25.71;56.88;97150.28;625977;226;63111;-69
2021/12/30 09:27:39;;;;;;;;;;;;;;;25.72;56.28;97157.25;626062;226;66724;-68
2021/12/30 09:30:08;;;;;;;;;;;;;;;25.72;56.69;97159.94;625868;226;66871;-69
2021/12/30 09:32:36;;;;;;;;;;;;;;;25.74;56.58;97165.83;625575;226;65123;-69
2021/12/30 09:35:04;;;;;;;;;;;;;;;25.76;57.18;97169.03;625873;226;67030;-68
2021/12/30 09:37:32;;;;;;;;;;;;;;;25.74;57.00;97170.42;625862;226;66953;-69
2021/12/30 09:39:59;;;;;;;;;;;;;;;25.76;56.52;97162.86;625870;226;64855;-68
2021/12/30 09:42:27;;;;;;;;;;;;;;;25.77;57.21;97180.59;625819;226;66824;-69
2021/12/30 09:44:55;;;;;;;;;;;;;;;25.78;57.10;97180.30;625847;226;64714;-69
2021/12/30 09:47:22;;;;;;;;;;;;;;;25.79;56.51;97189.17;625897;226;62919;-68
2021/12/30 09:49:52;;;;;;;;;;;;;;;25.79;57.23;97189.97;625788;226;65830;-68
2021/12/30 09:52:19;;;;;;;;;;;;;;;25.78;56.83;97187.55;625814;226;67662;-68
2021/12/30 09:54:46;;;;;;;;;;;;;;;25.81;56.92;97184.27;625980;226;65685;-60
2021/12/30 09:57:14;;;;;;;;;;;;;;;25.81;57.21;97189.65;625788;226;67117;-60
2021/12/30 09:59:41;;;;;;;;;;;;;;;25.79;56.99;97192.66;625389;226;66879;-59
2021/12/30 10:02:09;;;;;;;;;;;;;;;25.80;57.42;97191.55;625774;226;62898;-59
2021/12/30 10:04:37;;;;;;;;;;;;;;;25.82;57.84;97200.14;625904;226;67230;-59
2021/12/30 10:07:05;;;;;;;;;;;;;;;25.84;58.00;97195.29;625841;224;67062;-59
2021/12/30 10:09:39;;;;;;;;;;;;;;;25.85;59.10;97199.56;625446;226;62732;-59
2021/12/30 10:12:07;;;;;;;;;;;;;;;25.86;58.09;97206.56;625905;226;65049;-60
2021/12/30 10:14:36;;;;;;;;;;;;;;;25.79;57.58;97200.73;625834;226;64447;-59
2021/12/30 10:17:20;;;;;;;;;;;;;;;25.82;58.92;97202.03;625873;226;64856;-59
2021/12/30 10:19:48;;;;;;;;;;;;;;;25.83;58.92;97196.37;625875;226;67153;-59
2021/12/30 10:22:16;;;;;;;;;;;;;;;25.82;58.42;97200.14;625720;226;67179;-60
2021/12/30 10:24:44;;;;;;;;;;;;;;;25.84;58.37;97200.67;625857;226;65010;-64
2021/12/30 10:27:14;;;;;;;;;;;;;;;25.84;58.42;97197.98;625807;226;67214;-65
2021/12/30 10:29:42;;;;;;;;;;;;;;;25.85;58.52;97194.18;623408;226;67192;-64
2021/12/30 10:32:15;;;;;;;;;;;;;;;25.86;57.95;97198.48;625819;226;65016;-65
2021/12/30 10:35:01;;;;;;;;;;;;;;;25.86;58.24;97201.18;625753;226;65940;-65
2021/12/30 10:37:28;;;;;;;;;;;;;;;25.88;58.34;97198.17;620762;226;64930;-65
2021/12/30 10:39:56;;;;;;;;;;;;;;;25.87;59.18;97202.77;618653;227;62911;-69
2021/12/30 10:42:23;;;;;;;;;;;;;;;25.86;58.52;97203.87;618660;229;64310;-65
2021/12/30 10:44:53;;;;;;;;;;;;;;;25.89;59.25;97210.53;618627;229;66863;-65
2021/12/30 10:47:22;;;;;;;;;;;;;;;25.90;58.27;97204.86;618717;229;64738;-65
2021/12/30 10:50:03;;;;;;;;;;;;;;;25.90;58.83;97212.94;618469;229;67382;-65
2021/12/30 10:52:31;;;;;;;;;;;;;;;25.92;59.46;97207.27;617345;228;66903;-64
2021/12/30 10:55:02;;;;;;;;;;;;;;;25.91;58.91;97203.75;617551;229;62645;-64
2021/12/30 10:57:30;;;;;;;;;;;;;;;25.93;59.05;97205.36;617574;229;67270;-65
2021/12/30 11:00:00;;;;;;;;;;;;;;;25.95;59.17;97216.64;617672;229;64853;-65
2021/12/30 11:02:28;;;;;;;;;;;;;;;25.93;59.44;97216.92;617515;228;62757;-64
2021/12/30 11:05:06;;;;;;;;;;;;;;;25.94;59.62;97225.80;617427;229;68024;-64
2021/12/30 11:07:43;;;;;;;;;;;;;;;25.95;58.94;97214.74;617515;227;66787;-65
2021/12/30 11:10:12;;;;;;;;;;;;;;;25.99;59.24;97225.70;617553;229;66440;-65
2021/12/30 11:12:42;;;;;;;;;;;;;;;25.97;59.35;97222.51;617147;229;64914;-65
2021/12/30 11:15:23;;;;;;;;;;;;;;;25.98;59.24;97229.50;617263;229;66844;-66
2021/12/30 11:17:51;;;;;;;;;;;;;;;25.98;59.83;97229.50;617526;229;64998;-64
2021/12/30 11:20:20;;;;;;;;;;;;;;;25.98;59.45;97229.50;617566;229;67192;-65
2021/12/30 11:22:48;;;;;;;;;;;;;;;25.99;59.33;97233.78;617571;229;64746;-65
2021/12/30 11:25:18;;;;;;;;;;;;;;;26.00;59.37;97233.50;617525;229;65112;-64
2021/12/30 11:27:46;;;;;;;;;;;;;;;26.01;59.99;97236.98;617686;229;67174;-64
2021/12/30 11:30:15;;;;;;;;;;;;;;;26.03;60.37;97234.80;617675;229;66820;-64
2021/12/30 11:32:47;;;;;;;;;;;;;;;26.02;59.83;97225.90;617473;229;65090;-64
2021/12/30 11:35:12;;;;;;;;;;;;;;;26.04;59.77;97228.30;617534;228;66972;-64
2021/12/30 11:37:40;;;;;;;;;;;;;;;26.06;59.96;97226.12;617608;229;67166;-64
2021/12/30 11:40:12;;;;;;;;;;;;;;;26.07;59.86;97231.19;617508;229;65036;-64
2021/12/30 11:42:41;;;;;;;;;;;;;;;26.08;59.97;97240.89;617654;229;65110;-65
2021/12/30 11:45:26;;;;;;;;;;;;;;;26.06;59.71;97243.07;617370;228;67048;-63
2021/12/30 11:47:54;;;;;;;;;;;;;;;26.06;59.49;97231.50;617553;229;65244;-63
2021/12/30 11:50:29;;;;;;;;;;;;;;;26.08;59.79;97231.98;617572;229;65187;-63
2021/12/30 11:52:58;;;;;;;;;;;;;;;26.08;60.19;97230.11;617534;229;64585;-63
2021/12/30 11:55:45;;;;;;;;;;;;;;;26.08;60.21;97230.11;617631;229;65036;-64
2021/12/30 11:58:36;;;;;;;;;;;;;;;26.08;60.40;97235.50;617697;229;67085;-65
2021/12/30 12:01:05;;;;;;;;;;;;;;;26.07;59.95;97233.88;617530;228;65091;-69
2021/12/30 12:03:47;;;;;;;;;;;;;;;26.10;60.42;97232.48;616992;229;65128;-64
2021/12/30 12:06:28;;;;;;;;;;;;;;;26.08;60.30;97232.80;617603;229;65120;-62
2021/12/30 12:08:57;;;;;;;;;;;;;;;26.08;59.92;97242.75;617512;229;64777;-64
2021/12/30 12:11:26;;;;;;;;;;;;;;;26.11;60.40;97244.88;617636;229;65300;-65
2021/12/30 12:13:55;;;;;;;;;;;;;;;26.10;59.24;97256.73;617581;229;67468;-66
2021/12/30 12:16:41;;;;;;;;;;;;;;;26.10;60.31;97254.83;617685;229;67054;-65
2021/12/30 12:19:09;;;;;;;;;;;;;;;26.11;59.80;97264.52;617704;229;65263;-64
2021/12/30 12:21:40;;;;;;;;;;;;;;;26.12;60.14;97268.02;617544;229;65007;-65
2021/12/30 12:24:32;;;;;;;;;;;;;;;26.13;60.48;97265.00;617511;229;64916;-65
2021/12/30 12:26:57;;;;;;;;;;;;;;;26.15;61.32;97270.11;618016;227;65283;-65
2021/12/30 12:29:33;;;;;;;;;;;;;;;26.15;60.32;97277.39;617471;227;67143;-71
2021/12/30 12:32:03;;;;;;;;;;;;;;;26.15;60.03;97277.39;617587;229;64890;-65
2021/12/30 12:34:45;;;;;;;;;;;;;;;26.16;60.74;97278.98;617638;229;63032;-65
2021/12/30 12:37:40;;;;;;;;;;;;;;;26.17;60.15;97284.08;617638;227;49224;-66
2021/12/30 12:40:05;;;;;;;;;;;;;;;26.21;59.92;97281.58;617268;228;66978;-67
2021/12/30 12:42:53;;;;;;;;;;;;;;;26.21;59.61;97281.58;617559;229;65939;-60
2021/12/30 12:45:24;;;;;;;;;;;;;;;26.18;59.58;97287.56;616957;228;49192;-69
2021/12/30 12:48:10;;;;;;;;;;;;;;;26.15;58.70;97294.34;617629;229;64608;-64
2021/12/30 12:50:39;;;;;;;;;;;;;;;26.15;57.42;97299.73;617882;229;62826;-67
2021/12/30 12:53:21;;;;;;;;;;;;;;;26.12;59.73;97306.52;618585;228;67148;-67
2021/12/30 12:55:49;;;;;;;;;;;;;;;26.11;60.64;97307.62;618138;229;67305;-60
2021/12/30 12:58:20;;;;;;;;;;;;;;;26.12;60.65;97313.80;618647;229;65271;-62